createdAt,value
2018-08-10T00:00:52.114Z,17.60
2018-08-10T00:03:20.508Z,17.79
2018-08-10T00:05:48.997Z,17.97
2018-08-10T00:08:17.343Z,17.76
2018-08-10T00:10:45.703Z,17.75
2018-08-10T00:13:14.080Z,17.87
2018-08-10T00:15:42.457Z,17.51
2018-08-10T00:18:10.860Z,17.98
2018-08-10T00:20:39.267Z,17.81
2018-08-10T00:23:07.783Z,17.87
2018-08-10T00:25:36.224Z,17.75
2018-08-10T00:28:04.602Z,17.57
2018-08-10T00:30:32.976Z,17.72
2018-08-10T00:33:01.333Z,17.75
2018-08-10T00:35:29.688Z,17.75
2018-08-10T00:37:58.086Z,18.09
2018-08-10T00:40:26.435Z,17.95
2018-08-10T00:42:54.819Z,18.06
2018-08-10T00:45:23.155Z,17.82
2018-08-10T00:47:51.523Z,17.92
2018-08-10T00:50:19.908Z,18.12
2018-08-10T00:52:48.777Z,18.13
2018-08-10T00:55:18.258Z,18.00
2018-08-10T00:57:47.047Z,18.00
2018-08-10T01:00:21.967Z,17.82
2018-08-10T01:02:50.763Z,17.84
2018-08-10T01:05:19.182Z,18.02
2018-08-10T01:07:47.550Z,18.34
2018-08-10T01:10:17.357Z,18.29
2018-08-10T01:12:45.739Z,17.71
2018-08-10T01:15:15.308Z,18.10
2018-08-10T01:17:44.240Z,18.39
2018-08-10T01:20:15.692Z,17.92
2018-08-10T01:22:49.073Z,18.37
2018-08-10T01:25:18.727Z,18.32
2018-08-10T01:27:52.279Z,18.20
2018-08-10T01:30:20.646Z,17.87
2018-08-10T01:32:49.144Z,18.27
2018-08-10T01:35:17.558Z,18.71
2018-08-10T01:37:45.936Z,18.33
2018-08-10T01:40:14.375Z,18.30
2018-08-10T01:42:42.737Z,17.88
2018-08-10T01:45:11.225Z,17.64
2018-08-10T01:47:39.584Z,17.56
2018-08-10T01:50:08.668Z,17.08
2018-08-10T01:52:37.439Z,17.80
2018-08-10T01:55:06.023Z,17.48
2018-08-10T01:57:34.491Z,17.82
2018-08-10T02:00:03.028Z,17.84
2018-08-10T02:02:31.590Z,18.21
2018-08-10T02:05:00.034Z,17.15
2018-08-10T02:07:28.469Z,17.31
2018-08-10T02:09:56.861Z,17.23
2018-08-10T02:12:25.311Z,17.76
2018-08-10T02:14:54.050Z,17.70
2018-08-10T02:17:22.436Z,17.46
2018-08-10T02:19:50.840Z,17.83
2018-08-10T02:22:19.438Z,17.35
2018-08-10T02:24:47.969Z,17.85
2018-08-10T02:27:16.406Z,17.74
2018-08-10T02:29:44.863Z,16.79
2018-08-10T02:32:13.410Z,17.39
2018-08-10T02:34:41.731Z,17.52
2018-08-10T02:37:10.129Z,17.21
2018-08-10T02:39:38.417Z,16.99
2018-08-10T02:42:06.960Z,17.20
2018-08-10T02:44:35.380Z,17.05
2018-08-10T02:47:03.752Z,16.48
2018-08-10T02:49:32.075Z,16.79
2018-08-10T02:52:00.688Z,16.77
2018-08-10T02:54:29.360Z,16.41
2018-08-10T02:56:57.966Z,16.97
2018-08-10T02:59:26.322Z,16.73
2018-08-10T03:01:55.993Z,17.12
2018-08-10T03:04:24.326Z,17.63
2018-08-10T03:06:52.755Z,17.38
2018-08-10T03:09:21.126Z,17.63
2018-08-10T03:11:49.526Z,16.45
2018-08-10T03:14:18.095Z,17.08
2018-08-10T03:16:46.432Z,17.16
2018-08-10T03:19:14.736Z,17.18
2018-08-10T03:21:43.066Z,17.22
2018-08-10T03:24:11.351Z,17.18
2018-08-10T03:26:40.820Z,16.89
2018-08-10T03:29:09.125Z,16.93
2018-08-10T03:31:37.454Z,17.36
2018-08-10T03:34:05.813Z,16.89
2018-08-10T03:36:34.147Z,16.96
2018-08-10T03:39:02.521Z,16.31
2018-08-10T03:41:30.863Z,16.99
2018-08-10T03:43:59.271Z,16.82
2018-08-10T03:46:27.587Z,15.97
2018-08-10T03:48:56.046Z,16.06
2018-08-10T03:51:25.491Z,15.81
2018-08-10T03:53:53.812Z,15.96
2018-08-10T03:56:22.213Z,16.08
2018-08-10T03:58:50.599Z,15.66
2018-08-10T04:01:19.080Z,15.51
2018-08-10T04:03:47.451Z,15.76
2018-08-10T04:06:15.876Z,15.79
2018-08-10T04:08:44.255Z,15.67
2018-08-10T04:11:12.595Z,15.50
2018-08-10T04:13:41.075Z,15.52
2018-08-10T04:16:09.698Z,15.47
2018-08-10T04:18:38.100Z,15.76
2018-08-10T04:21:06.743Z,15.50
2018-08-10T04:23:35.204Z,15.83
2018-08-10T04:26:03.727Z,16.19
2018-08-10T04:28:32.176Z,15.63
2018-08-10T04:31:00.891Z,15.75
2018-08-10T04:33:29.688Z,15.61
2018-08-10T04:35:58.214Z,15.88
2018-08-10T04:38:29.782Z,16.35
2018-08-10T04:41:03.506Z,16.27
2018-08-10T04:43:35.589Z,15.82
2018-08-10T04:46:05.664Z,15.94
2018-08-10T04:48:42.110Z,16.16
2018-08-10T04:51:14.452Z,15.78
2018-08-10T04:53:47.263Z,15.66
2018-08-10T04:56:17.197Z,15.84
2018-08-10T04:58:51.057Z,16.23
2018-08-10T05:04:04.090Z,16.64
2018-08-10T05:06:36.994Z,16.74
2018-08-10T05:09:12.452Z,16.72
2018-08-10T05:11:43.447Z,16.58
2018-08-10T05:14:14.255Z,16.85
2018-08-10T05:16:46.521Z,16.84
2018-08-10T05:19:17.615Z,16.80
2018-08-10T05:21:58.754Z,16.61
2018-08-10T05:24:29.825Z,16.64
2018-08-10T05:27:00.483Z,16.44
2018-08-10T05:29:34.286Z,16.44
2018-08-10T05:32:05.529Z,16.83
2018-08-10T05:34:35.930Z,16.59
2018-08-10T05:37:06.658Z,16.40
2018-08-10T05:39:36.575Z,16.53
2018-08-10T05:42:07.016Z,16.63
2018-08-10T05:44:38.534Z,16.77
2018-08-10T05:47:08.473Z,16.36
2018-08-10T05:49:38.749Z,17.31
2018-08-10T05:52:08.871Z,16.63
2018-08-10T05:54:38.958Z,16.19
2018-08-10T05:57:10.048Z,16.54
2018-08-10T05:59:40.157Z,16.76
2018-08-10T06:02:10.008Z,16.54
2018-08-10T06:04:44.306Z,16.69
2018-08-10T06:07:19.291Z,16.70
2018-08-10T06:09:51.386Z,16.75
2018-08-10T06:12:27.866Z,16.84
2018-08-10T06:15:05.960Z,16.89
2018-08-10T06:17:36.093Z,17.04
2018-08-10T06:20:05.679Z,17.16
2018-08-10T06:22:34.126Z,17.05
2018-08-10T06:25:02.532Z,17.39
2018-08-10T06:27:30.862Z,17.62
2018-08-10T06:29:59.253Z,18.40
2018-08-10T06:32:27.624Z,18.00
2018-08-10T06:34:56.191Z,17.44
2018-08-10T06:37:24.608Z,17.87
2018-08-10T06:39:52.959Z,17.21
2018-08-10T06:42:21.372Z,17.67
2018-08-10T06:44:49.717Z,17.79
2018-08-10T06:47:18.079Z,18.98
2018-08-10T06:49:46.463Z,20.50
2018-08-10T06:52:14.792Z,21.40
2018-08-10T06:54:43.152Z,21.49
2018-08-10T06:57:11.525Z,21.26
2018-08-10T06:59:39.884Z,21.23
2018-08-10T07:02:08.281Z,21.46
2018-08-10T07:04:36.662Z,22.12
2018-08-10T07:07:05.263Z,22.06
2018-08-10T07:09:33.652Z,22.64
2018-08-10T07:12:01.958Z,22.89
2018-08-10T07:14:30.339Z,21.85
2018-08-10T07:16:58.675Z,21.80
2018-08-10T07:19:27.043Z,21.20
2018-08-10T07:21:55.409Z,20.83
2018-08-10T07:24:23.770Z,22.63
2018-08-10T07:26:52.201Z,22.52
2018-08-10T07:29:20.592Z,23.36
2018-08-10T07:31:48.994Z,23.97
2018-08-10T07:34:17.336Z,24.89
2018-08-10T07:36:45.762Z,25.16
2018-08-10T07:39:14.136Z,25.57
2018-08-10T07:41:42.974Z,24.53
2018-08-10T07:44:11.381Z,23.70
2018-08-10T07:46:39.916Z,21.94
2018-08-10T07:49:08.306Z,23.09
2018-08-10T07:51:36.728Z,24.57
2018-08-10T07:54:05.098Z,25.02
2018-08-10T07:56:33.565Z,25.65
2018-08-10T07:59:01.954Z,26.49
2018-08-10T08:01:30.371Z,26.27
2018-08-10T08:03:58.789Z,26.19
2018-08-10T08:06:27.235Z,26.65
2018-08-10T08:08:55.604Z,25.76
2018-08-10T08:11:23.979Z,25.44
2018-08-10T08:13:52.396Z,25.19
2018-08-10T08:16:20.886Z,24.56
2018-08-10T08:18:49.308Z,26.03
2018-08-10T08:21:17.711Z,26.61
2018-08-10T08:23:46.141Z,27.58
2018-08-10T08:26:14.510Z,26.97
2018-08-10T08:28:42.916Z,28.22
2018-08-10T08:31:11.379Z,27.14
2018-08-10T08:33:50.930Z,28.37
2018-08-10T08:36:19.347Z,28.35
2018-08-10T08:41:05.244Z,27.72
2018-08-10T08:45:47.036Z,27.91
2018-08-10T08:48:15.194Z,29.84
2018-08-10T08:50:44.904Z,27.90
2018-08-10T08:53:13.256Z,29.16
2018-08-10T08:55:51.818Z,29.04
2018-08-10T08:58:20.319Z,28.19
2018-08-10T09:00:48.687Z,27.32
2018-08-10T09:03:28.884Z,28.08
2018-08-10T09:05:57.674Z,27.41
2018-08-10T09:08:26.109Z,27.80
2018-08-10T09:10:55.625Z,28.96
2018-08-10T09:13:24.412Z,29.35
2018-08-10T09:15:52.870Z,27.79
2018-08-10T09:18:21.304Z,27.94
2018-08-10T09:20:49.720Z,26.74
2018-08-10T09:23:18.002Z,25.07
2018-08-10T09:25:46.362Z,25.73
2018-08-10T09:28:14.670Z,26.47
2018-08-10T09:30:43.055Z,26.11
2018-08-10T09:33:11.498Z,27.44
2018-08-10T09:35:39.946Z,25.92
2018-08-10T09:38:08.388Z,25.73
2018-08-10T09:40:36.767Z,25.39
2018-08-10T09:43:05.429Z,26.42
2018-08-10T09:45:33.840Z,28.74
2018-08-10T09:48:02.283Z,29.03
2018-08-10T09:51:01.629Z,30.19
2018-08-10T09:53:29.998Z,30.18
2018-08-10T09:55:58.325Z,31.03
2018-08-10T09:58:26.671Z,30.04
2018-08-10T10:00:55.046Z,28.89
2018-08-10T10:03:24.696Z,29.74
2018-08-10T10:05:54.280Z,30.21
2018-08-10T10:08:23.228Z,30.18
2018-08-10T10:10:51.500Z,29.41
2018-08-10T10:13:19.759Z,29.67
2018-08-10T10:15:48.027Z,30.25
2018-08-10T10:18:16.976Z,30.55
2018-08-10T10:20:45.988Z,30.80
2018-08-10T10:23:14.284Z,29.97
2018-08-10T10:25:42.547Z,29.94
2018-08-10T10:28:10.953Z,30.15
2018-08-10T10:30:39.304Z,31.11
2018-08-10T10:33:07.538Z,30.98
2018-08-10T10:35:35.793Z,30.89
2018-08-10T10:38:04.036Z,31.57
2018-08-10T10:40:32.346Z,32.03
2018-08-10T10:43:00.659Z,31.45
2018-08-10T10:45:29.011Z,31.70
2018-08-10T10:47:57.319Z,31.58
2018-08-10T10:50:25.771Z,31.13
2018-08-10T10:52:54.035Z,29.39
2018-08-10T10:55:22.304Z,28.63
2018-08-10T10:57:50.559Z,29.66
2018-08-10T11:00:20.158Z,30.45
2018-08-10T11:05:41.886Z,28.77
2018-08-10T11:08:11.297Z,28.72
2018-08-10T11:10:39.579Z,29.63
2018-08-10T11:13:08.071Z,29.31
2018-08-10T11:15:36.478Z,29.56
2018-08-10T11:18:04.931Z,28.84
2018-08-10T11:20:34.396Z,29.84
2018-08-10T11:23:02.670Z,31.05
2018-08-10T11:25:31.019Z,30.52
2018-08-10T11:27:59.278Z,29.24
2018-08-10T11:30:27.704Z,30.46
2018-08-10T11:32:56.048Z,30.68
2018-08-10T11:35:24.456Z,29.48
2018-08-10T11:37:52.722Z,30.13
2018-08-10T11:40:21.031Z,29.60
2018-08-10T11:42:49.424Z,29.29
2018-08-10T11:45:18.449Z,28.68
2018-08-10T11:47:46.855Z,26.95
2018-08-10T11:50:15.176Z,27.10
2018-08-10T11:52:43.465Z,26.81
2018-08-10T11:55:16.232Z,26.54
2018-08-10T11:57:45.093Z,25.44
2018-08-10T12:00:14.890Z,25.85
2018-08-10T12:02:43.686Z,25.64
2018-08-10T12:05:13.056Z,25.71
2018-08-10T12:07:41.830Z,25.97
2018-08-10T12:10:10.318Z,26.14
2018-08-10T12:12:38.890Z,26.56
2018-08-10T12:15:09.362Z,26.42
2018-08-10T12:17:37.971Z,26.04
2018-08-10T12:20:06.540Z,25.02
2018-08-10T12:22:34.898Z,25.09
2018-08-10T12:25:03.266Z,25.65
2018-08-10T12:27:38.347Z,25.50
2018-08-10T12:30:08.450Z,25.79
2018-08-10T12:32:36.852Z,25.68
2018-08-10T12:35:05.235Z,24.80
2018-08-10T12:37:33.640Z,25.32
2018-08-10T12:40:02.180Z,26.07
2018-08-10T12:42:30.591Z,26.28
2018-08-10T12:44:58.980Z,25.55
2018-08-10T12:47:27.408Z,25.85
2018-08-10T12:49:55.997Z,25.99
2018-08-10T12:52:31.077Z,25.84
2018-08-10T12:54:59.539Z,25.17
2018-08-10T12:57:28.103Z,25.01
2018-08-10T12:59:56.782Z,25.56
2018-08-10T13:02:25.271Z,25.99
2018-08-10T13:04:53.748Z,26.03
2018-08-10T13:07:22.449Z,26.20
2018-08-10T13:09:50.897Z,25.76
2018-08-10T13:12:19.381Z,25.33
2018-08-10T13:14:47.811Z,25.30
2018-08-10T13:17:16.599Z,25.60
2018-08-10T13:19:45.099Z,26.57
2018-08-10T13:22:13.602Z,25.78
2018-08-10T13:24:41.975Z,24.28
2018-08-10T13:27:10.321Z,25.28
2018-08-10T13:29:38.639Z,25.22
2018-08-10T13:32:07.137Z,24.79
2018-08-10T13:34:35.553Z,24.97
2018-08-10T13:37:03.960Z,25.35
2018-08-10T13:39:32.336Z,26.16
2018-08-10T13:42:00.867Z,25.73
2018-08-10T13:44:29.215Z,25.57
2018-08-10T13:47:01.575Z,25.65
2018-08-10T13:49:31.112Z,24.87
2018-08-10T13:51:59.546Z,25.25
2018-08-10T13:54:28.058Z,24.82
2018-08-10T13:56:56.488Z,24.47
2018-08-10T13:59:24.973Z,24.91
2018-08-10T14:01:53.413Z,24.70
2018-08-10T14:04:21.874Z,25.35
2018-08-10T14:06:50.895Z,25.68
2018-08-10T14:09:19.362Z,25.70
2018-08-10T14:11:47.921Z,25.75
2018-08-10T14:14:17.495Z,25.46
2018-08-10T14:16:45.952Z,25.20
2018-08-10T14:19:14.449Z,25.36
2018-08-10T14:21:43.035Z,25.65
2018-08-10T14:24:11.535Z,25.19
2018-08-10T14:26:40.024Z,25.33
2018-08-10T14:29:08.653Z,25.32
2018-08-10T14:31:37.172Z,25.54
2018-08-10T14:34:05.596Z,25.41
2018-08-10T14:36:33.984Z,25.73
2018-08-10T14:39:02.370Z,25.06
2018-08-10T14:41:30.975Z,24.85
2018-08-10T14:43:59.445Z,24.73
2018-08-10T14:46:27.898Z,24.59
2018-08-10T14:48:56.313Z,24.59
2018-08-10T14:51:24.724Z,24.73
2018-08-10T14:53:53.036Z,24.71
2018-08-10T14:56:21.335Z,24.51
2018-08-10T14:58:49.772Z,24.55
2018-08-10T15:01:18.147Z,24.92
2018-08-10T15:03:46.540Z,24.36
2018-08-10T15:06:14.871Z,24.72
2018-08-10T15:08:46.134Z,24.81
2018-08-10T15:11:14.750Z,24.78
2018-08-10T15:13:43.117Z,24.15
2018-08-10T15:16:11.533Z,23.85
2018-08-10T15:18:39.941Z,23.82
2018-08-10T15:21:08.633Z,23.65
2018-08-10T15:23:37.108Z,24.28
2018-08-10T15:26:06.576Z,24.48
2018-08-10T15:28:35.024Z,24.18
2018-08-10T15:31:03.409Z,24.02
2018-08-10T15:33:32.090Z,24.04
2018-08-10T15:36:00.596Z,23.96
2018-08-10T15:38:29.133Z,24.81
2018-08-10T15:40:57.672Z,24.29
2018-08-10T15:43:26.089Z,24.04
2018-08-10T15:45:54.523Z,23.62
2018-08-10T15:48:22.939Z,23.95
2018-08-10T15:50:51.276Z,24.58
2018-08-10T15:53:19.654Z,24.27
2018-08-10T15:55:48.005Z,24.14
2018-08-10T15:58:16.483Z,24.69
2018-08-10T16:00:44.810Z,24.54
2018-08-10T16:03:13.195Z,24.37
2018-08-10T16:05:41.458Z,24.81
2018-08-10T16:08:09.902Z,24.47
2018-08-10T16:10:38.233Z,23.75
2018-08-10T16:13:06.953Z,23.79
2018-08-10T16:15:35.378Z,24.29
2018-08-10T16:18:03.694Z,24.31
2018-08-10T16:20:31.956Z,24.22
2018-08-10T16:23:00.283Z,24.18
2018-08-10T16:25:28.711Z,23.93
2018-08-10T16:27:56.982Z,24.22
2018-08-10T16:30:25.397Z,24.34
2018-08-10T16:32:53.680Z,24.14
2018-08-10T16:35:21.966Z,24.11
2018-08-10T16:37:50.435Z,24.06
2018-08-10T16:40:19.659Z,23.91
2018-08-10T16:42:48.220Z,24.06
2018-08-10T16:45:16.492Z,23.69
2018-08-10T16:47:45.927Z,23.69
2018-08-10T16:50:16.008Z,23.84
2018-08-10T16:52:44.848Z,23.94
2018-08-10T16:55:15.631Z,23.72
2018-08-10T16:57:44.812Z,23.52
2018-08-10T17:00:18.778Z,23.70
2018-08-10T17:02:47.514Z,23.84
2018-08-10T17:05:16.026Z,23.84
2018-08-10T17:07:44.608Z,23.87
2018-08-10T17:10:13.404Z,23.37
2018-08-10T17:12:47.242Z,23.43
2018-08-10T17:15:17.405Z,23.69
2018-08-10T17:17:46.619Z,23.88
2018-08-10T17:20:15.527Z,23.52
2018-08-10T17:22:49.510Z,23.47
2018-08-10T17:25:19.057Z,23.49
2018-08-10T17:27:47.438Z,23.36
2018-08-10T17:30:17.255Z,23.34
2018-08-10T17:32:45.617Z,22.84
2018-08-10T17:35:14.969Z,23.10
2018-08-10T17:37:44.125Z,23.68
2018-08-10T17:40:12.427Z,23.58
2018-08-10T17:42:40.719Z,23.36
2018-08-10T17:45:11.101Z,23.41
2018-08-10T17:47:39.402Z,23.40
2018-08-10T17:50:12.552Z,23.37
2018-08-10T17:52:43.768Z,23.52
2018-08-10T17:55:12.491Z,23.64
2018-08-10T17:57:40.815Z,24.10
2018-08-10T18:00:11.366Z,23.84
2018-08-10T18:02:39.632Z,23.89
2018-08-10T18:05:09.950Z,23.58
2018-08-10T18:07:38.242Z,23.72
2018-08-10T18:10:06.783Z,23.70
2018-08-10T18:12:35.087Z,23.35
2018-08-10T18:15:03.478Z,23.54
2018-08-10T18:17:31.759Z,23.38
2018-08-10T18:20:00.050Z,22.87
2018-08-10T18:22:28.303Z,22.64
2018-08-10T18:24:56.589Z,22.81
2018-08-10T18:27:25.011Z,23.13
2018-08-10T18:29:53.264Z,23.51
2018-08-10T18:32:21.715Z,23.40
2018-08-10T18:34:49.984Z,23.26
2018-08-10T18:37:18.259Z,22.92
2018-08-10T18:39:46.691Z,22.51
2018-08-10T18:42:14.979Z,22.79
2018-08-10T18:44:43.274Z,22.73
2018-08-10T18:47:11.566Z,22.57
2018-08-10T18:49:39.930Z,22.61
2018-08-10T18:52:08.185Z,22.48
2018-08-10T18:54:36.649Z,21.98
2018-08-10T18:57:04.980Z,22.23
2018-08-10T18:59:33.198Z,21.98
2018-08-10T19:02:01.480Z,21.81
2018-08-10T19:04:29.825Z,21.68
2018-08-10T19:06:58.165Z,21.54
2018-08-10T19:09:26.475Z,21.13
2018-08-10T19:11:54.756Z,21.33
2018-08-10T19:14:23.114Z,21.28
2018-08-10T19:16:51.407Z,20.90
2018-08-10T19:19:19.751Z,20.86
2018-08-10T19:21:48.096Z,20.69
2018-08-10T19:24:16.435Z,20.55
2018-08-10T19:26:44.716Z,20.32
2018-08-10T19:29:13.012Z,20.03
2018-08-10T19:31:41.350Z,20.08
2018-08-10T19:34:09.591Z,20.06
2018-08-10T19:36:37.940Z,19.63
2018-08-10T19:39:08.229Z,19.78
2018-08-10T19:41:36.685Z,19.63
2018-08-10T19:44:05.030Z,19.58
2018-08-10T19:46:33.412Z,19.56
2018-08-10T19:49:01.903Z,19.41
2018-08-10T19:51:30.245Z,19.31
2018-08-10T19:53:58.553Z,19.23
2018-08-10T19:56:26.856Z,19.38
2018-08-10T19:58:55.203Z,19.13
2018-08-10T20:01:23.523Z,19.10
2018-08-10T20:03:51.786Z,19.01
2018-08-10T20:06:20.124Z,18.89
2018-08-10T20:08:48.411Z,19.02
2018-08-10T20:11:16.671Z,18.89
2018-08-10T20:13:44.960Z,18.63
2018-08-10T20:16:13.296Z,18.77
2018-08-10T20:18:42.850Z,18.46
2018-08-10T20:21:11.180Z,18.23
2018-08-10T20:23:40.899Z,17.87
2018-08-10T20:26:12.112Z,17.74
2018-08-10T20:28:41.915Z,17.68
2018-08-10T20:31:12.220Z,17.78
2018-08-10T20:33:42.480Z,18.07
2018-08-10T20:36:13.659Z,17.65
2018-08-10T20:38:44.595Z,18.05
2018-08-10T20:41:13.132Z,18.01
2018-08-10T20:43:41.420Z,17.98
2018-08-10T20:46:09.818Z,18.02
2018-08-10T20:48:38.107Z,17.81
2018-08-10T20:51:06.363Z,17.57
2018-08-10T20:53:35.714Z,17.27
2018-08-10T20:56:04.175Z,17.54
2018-08-10T20:58:32.379Z,17.44
2018-08-10T21:01:00.744Z,17.74
2018-08-10T21:03:29.023Z,17.77
2018-08-10T21:05:57.384Z,17.55
2018-08-10T21:08:25.833Z,17.40
2018-08-10T21:10:54.219Z,16.92
2018-08-10T21:13:22.520Z,17.10
2018-08-10T21:15:50.831Z,17.09
2018-08-10T21:18:19.142Z,17.13
2018-08-10T21:20:47.496Z,17.25
2018-08-10T21:23:15.950Z,17.09
2018-08-10T21:25:44.251Z,17.32
2018-08-10T21:28:12.619Z,17.23
2018-08-10T21:30:40.870Z,17.22
2018-08-10T21:33:09.172Z,16.92
2018-08-10T21:35:37.488Z,16.99
2018-08-10T21:38:05.776Z,17.15
2018-08-10T21:40:34.077Z,17.18
2018-08-10T21:43:02.318Z,17.00
2018-08-10T21:45:30.583Z,16.99
2018-08-10T21:47:58.938Z,17.10
2018-08-10T21:50:27.364Z,17.35
2018-08-10T21:52:56.688Z,16.76
2018-08-10T21:55:25.593Z,17.08
2018-08-10T21:57:54.000Z,16.79
2018-08-10T22:00:40.356Z,16.97
2018-08-10T22:03:10.083Z,16.73
2018-08-10T22:05:38.479Z,17.16
2018-08-10T22:08:06.735Z,17.00
2018-08-10T22:10:34.991Z,16.84
2018-08-10T22:13:03.327Z,16.90
2018-08-10T22:15:37.056Z,16.69
2018-08-10T22:18:11.221Z,16.72
2018-08-10T22:20:39.686Z,16.77
2018-08-10T22:23:08.159Z,17.07
2018-08-10T22:25:36.547Z,16.87
2018-08-10T22:28:04.988Z,16.89
2018-08-10T22:30:33.439Z,16.88
2018-08-10T22:33:01.915Z,16.97
2018-08-10T22:35:30.302Z,16.99
2018-08-10T22:37:58.679Z,16.97
2018-08-10T22:40:27.152Z,16.87
2018-08-10T22:42:55.523Z,16.75
2018-08-10T22:45:23.996Z,16.57
2018-08-10T22:47:52.412Z,16.73
2018-08-10T22:50:20.799Z,16.55
2018-08-10T22:52:49.236Z,16.57
2018-08-10T22:55:17.615Z,16.56
2018-08-10T22:57:46.028Z,16.64
2018-08-10T23:00:14.601Z,16.68
2018-08-10T23:02:42.982Z,16.86
2018-08-10T23:05:11.470Z,16.74
2018-08-10T23:07:39.723Z,16.91
2018-08-10T23:10:09.687Z,16.77
2018-08-10T23:12:38.131Z,16.58
2018-08-10T23:15:07.080Z,16.69
2018-08-10T23:17:35.511Z,16.69
2018-08-10T23:20:04.887Z,16.26
2018-08-10T23:22:33.238Z,16.41
2018-08-10T23:25:01.614Z,16.55
2018-08-10T23:27:29.938Z,16.60
2018-08-10T23:29:58.264Z,16.53
2018-08-10T23:32:26.637Z,16.57
2018-08-10T23:34:55.012Z,16.69
2018-08-10T23:37:23.411Z,16.82
2018-08-10T23:39:51.731Z,16.61
2018-08-10T23:42:20.998Z,16.99
2018-08-10T23:44:49.337Z,16.88
2018-08-10T23:47:17.894Z,16.88
2018-08-10T23:49:46.239Z,17.17
2018-08-10T23:52:14.642Z,17.09
2018-08-10T23:54:42.999Z,17.26
2018-08-10T23:57:11.343Z,17.46
2018-08-10T23:59:39.700Z,17.64
